Nearby METAR Reports

 

KEQY - Monroe, North Carolina, USA
Distance from station: S 11mi, 18km
Updated: Sun, 11/23/2014 9:53pm EST
Partly cloudy
Partly cloudy
 Wind from S
Wind: S 9 mph , 15 km/h
Temperature: 64°F , 18°C
Dew Point: 63°F , 17°C
Humidity: 94%
Barometer: 29.77 inHg , 1008.1 hPa
Clouds: Partly cloudy
Visibility: 10 miles , 16 km
Cloud details: Partly cloudy 5000 ft
2014/11/24 02:53 KEQY 240253Z AUTO 18008KT 10SM SCT050 18/17 A2977 RMK AO2 RAE34 SLP091 P0003 60054 T01830167 56017
KJQF - Concord Reg Arpt, North Carolina, USA
Distance from station: NNW 16mi, 25km
Updated: Sun, 11/23/2014 10:15pm EST
Overcast
Overcast
 Wind from SSE
Wind: SSE 7 mph , 11 km/h
Temperature: 63°F , 17°C
Dew Point: 61°F , 16°C
Humidity: 94%
Barometer: 29.78 inHg , 1008.5 hPa
Clouds: Overcast
Visibility: 10 miles , 16 km
Cloud details: Mostly cloudy 1200 ft
Overcast 6000 ft
2014/11/24 03:15 KJQF 240315Z AUTO 15006KT 10SM BKN012 OVC060 17/16 A2978 RMK AO2 LTG DSNT SE
 
KCLT - Charlotte, North Carolina, USA
Distance from station: W 20mi, 33km
Updated: Sun, 11/23/2014 9:52pm EST
Overcast
Overcast
 Wind from SSE
Wind: SSE 15 mph , 24 km/h
Temperature: 64°F , 18°C
Dew Point: 61°F , 16°C
Humidity: 88%
Barometer: 29.74 inHg , 1007.1 hPa
Clouds: Overcast
Visibility: 10 miles , 16 km
Cloud details: Partly cloudy 700 ft
Mostly cloudy 1200 ft
Mostly cloudy 6000 ft
Overcast 18000 ft
2014/11/24 02:52 KCLT 240252Z 16013KT 10SM SCT007 BKN012 BKN060 OVC180 18/16 A2974 RMK AO2 RAE15 SLP069 P0002 60058 T01780161 56026
KUZA - Rock Hill, South Carolina, USA
Distance from station: WSW 29mi, 47km
Updated: Sun, 11/23/2014 10:15pm EST
Overcast
Overcast
 Wind from S
Wind: S 13 mph , 20 km/h, Gust: 20 mph , 31 km/h
Temperature: 64°F , 18°C
Dew Point: 63°F , 17°C
Humidity: 94%
Barometer: 29.74 inHg , 1007.1 hPa
Clouds: Overcast
Visibility: 10 miles , 16 km
Cloud details: Partly cloudy 800 ft
Mostly cloudy 3700 ft
Overcast 4500 ft
2014/11/24 03:15 KUZA 240315Z AUTO 19011G17KT 10SM SCT008 BKN037 OVC045 18/17 A2974 RMK AO2 T01780167
 
KVUJ - Albemarle Stanly, North Carolina, USA
Distance from station: NE 30mi, 48km
Updated: Sun, 11/23/2014 10:15pm EST
Nearby thunderstorm, Mostly cloudy
Nearby thunderstorm, Mostly cloudy
 Wind from SSE
Wind: SSE 15 mph , 24 km/h, Gust: 21 mph , 33 km/h
Temperature: 64°F , 18°C
Dew Point: 64°F , 18°C
Humidity: 100%
Barometer: 29.80 inHg , 1009.1 hPa
Summary: Nearby Thunderstorm
Clouds: Mostly cloudy
Visibility: 10 miles , 16 km
Cloud details: Mostly cloudy 600 ft
Mostly cloudy 6000 ft
2014/11/24 03:15 KVUJ 240315Z AUTO 16013G18KT 10SM VCTS BKN006 BKN060 18/18 A2980 RMK AO2 LTG DSNT E AND SE T01750175
KAFP - Wadesboro/Anson, North Carolina, USA
Distance from station: ESE 31mi, 50km
Updated: Sun, 11/23/2014 10:15pm EST
Partly cloudy
Partly cloudy
 Wind from SE
Wind: SE 12 mph , 19 km/h
Temperature: 66°F , 19°C
Dew Point: 64°F , 18°C
Humidity: 94%
Barometer: 29.78 inHg , 1008.5 hPa
Clouds: Partly cloudy
Visibility: 10 miles , 16 km
Cloud details: Partly cloudy 4900 ft
Partly cloudy 6000 ft
Partly cloudy 12000 ft
2014/11/24 03:15 KAFP 240315Z AUTO 14010KT 10SM SCT049 SCT060 SCT120 19/18 A2978 RMK AO2 T01860175
 
KAKH - Gastonia, North Carolina, USA
Distance from station: W 31mi, 51km
Updated: Sun, 11/23/2014 9:54pm EST
Overcast
Overcast
 Wind from S
Wind: S 10 mph , 17 km/h
Temperature: 63°F , 17°C
Dew Point: 61°F , 16°C
Humidity: 94%
Barometer: 29.73 inHg , 1006.8 hPa
Clouds: Overcast
Visibility: 10 miles , 16 km
Cloud details: Overcast 600 ft
2014/11/24 02:54 KAKH 240254Z AUTO 19009KT 160V230 10SM OVC006 17/16 A2973 RMK AO2 RAE08 CIG 004V009 SLP067 P0008 60047 T01720161 56021
KRUQ - Salisbury Rowan, North Carolina, USA
Distance from station: N 33mi, 53km
Updated: Sun, 11/23/2014 10:15pm EST
Overcast
Overcast
 Wind from S
Wind: S 13 mph , 20 km/h, Gust: 20 mph , 31 km/h
Temperature: 63°F , 17°C
Dew Point: 61°F , 16°C
Humidity: 94%
Barometer: 29.73 inHg , 1006.8 hPa
Clouds: Overcast
Visibility: 10 miles , 16 km
Cloud details: Mostly cloudy 900 ft
Mostly cloudy 1500 ft
Overcast 7000 ft
2014/11/24 03:15 KRUQ 240315Z AUTO 17011G17KT 10SM BKN009 BKN015 OVC070 17/16 A2973 RMK AO2 T01700163
 
KLKR - Lancaster, South Carolina, USA
Distance from station: SSW 35mi, 57km
Updated: Sun, 11/23/2014 10:15pm EST
Light rain, Partly cloudy
Light rain, Partly cloudy
 Wind from S
Wind: S 8 mph , 13 km/h
Temperature: 64°F , 18°C
Dew Point: 64°F , 18°C
Humidity: 100%
Barometer: 29.77 inHg , 1008.1 hPa
Summary: Light rain
Clouds: Partly cloudy
Visibility: 10 miles , 16 km
Cloud details: Few Clouds 6000 ft
Partly cloudy 7000 ft
2014/11/24 03:15 KLKR 240315Z AUTO 18007KT 10SM -RA FEW060 SCT070 18/18 A2977 RMK AO2 LTG DSNT E AND SE
KIPJ - Lincolnton, North Carolina, USA
Distance from station: WNW 39mi, 62km
Updated: Sun, 11/23/2014 10:15pm EST
Overcast
Overcast
 Wind from calm
Wind: Calm
Temperature: 61°F , 16°C
Dew Point: 59°F , 15°C
Humidity: 94%
Barometer: 29.73 inHg , 1006.8 hPa
Clouds: Overcast
Visibility: 10 miles , 16 km
Cloud details: Mostly cloudy 700 ft
Mostly cloudy 1300 ft
Overcast 8000 ft
2014/11/24 03:15 KIPJ 240315Z AUTO 00000KT 10SM BKN007 BKN013 OVC080 16/15 A2973 RMK AO2 T01560152
 
KDCM - Chester Catawba, South Carolina, USA
Distance from station: SW 44mi, 71km
Updated: Sun, 11/23/2014 10:15pm EST
Mostly cloudy
Mostly cloudy
 Wind from S
Wind: S 8 mph , 13 km/h
Temperature: 66°F , 19°C
Dew Point: 63°F , 17°C
Humidity: 88%
Barometer: 29.75 inHg , 1007.5 hPa
Clouds: Mostly cloudy
Visibility: 10 miles , 16 km
Cloud details: Mostly cloudy 3700 ft
Mostly cloudy 4300 ft
Mostly cloudy 6500 ft
2014/11/24 03:15 KDCM 240315Z AUTO 18007KT 10SM BKN037 BKN043 BKN065 19/17 A2975 RMK AO2
KSVH - Statesville, North Carolina, USA
Distance from station: NNW 44mi, 71km
Updated: Sun, 11/23/2014 10:15pm EST
Overcast
Overcast
 Wind from S
Wind: S 9 mph , 15 km/h
Temperature: 59°F , 15°C
Dew Point: 59°F , 15°C
Humidity: 100%
Barometer: 29.71 inHg , 1006.1 hPa
Clouds: Overcast
Visibility: 10 miles , 16 km
Cloud details: Overcast 400 ft
2014/11/24 03:15 KSVH 240315Z AUTO 17008KT 10SM OVC004 15/15 A2971 RMK AO2 T01540151
 
KEXX - Davidson Cty Ap, North Carolina, USA
Distance from station: NNE 45mi, 72km
Updated: Sun, 11/23/2014 10:15pm EST
Mostly cloudy
Mostly cloudy
 Wind from SSE
Wind: SSE 12 mph , 19 km/h, Gust: 21 mph , 33 km/h
Temperature: 63°F , 17°C
Dew Point: 61°F , 16°C
Humidity: 94%
Barometer: 29.73 inHg , 1006.8 hPa
Clouds: Mostly cloudy
Visibility: 10 miles , 16 km
Cloud details: Partly cloudy 1300 ft
Mostly cloudy 2100 ft
Mostly cloudy 7500 ft
2014/11/24 03:15 KEXX 240315Z AUTO 16010G18KT 130V200 10SM SCT013 BKN021 BKN075 17/16 A2973 RMK AO2 T01680161
KCQW - Cheraw, South Carolina, USA
Distance from station: SE 49mi, 78km
Updated: Sun, 11/23/2014 10:15pm EST
Light rain, Mostly cloudy
Light rain, Mostly cloudy
 Wind from SSE
Wind: SSE 5 mph , 7 km/h
Temperature: 64°F , 18°C
Dew Point: 64°F , 18°C
Humidity: 100%
Barometer: 29.80 inHg , 1009.1 hPa
Summary: Light rain
Clouds: Mostly cloudy
Visibility: 10 miles , 16 km
Cloud details: Mostly cloudy 2000 ft
Mostly cloudy 2900 ft
2014/11/24 03:15 KCQW 240315Z AUTO 15004KT 10SM -RA BKN020 BKN029 18/18 A2980 RMK AO2 LTG DSNT SE AND S P0001